Time;durP1;ratioP1;P1;durP2;ratioP2;P2;SDS_P1;SDS_P2;PMS_P1;PMS_P2;Temp;Humidity;BMP_temperature;BMP_pressure;BME280_temperature;BME280_humidity;BME280_pressure;Samples;Min_cycle;Max_cycle;Signal;HPM_P1;HPM_P2
2022/04/13 00:00:49;;;;;;;167.60;75.77;;;;;;;-1.05;60.66;101025.83;1683242;85;29780;-73
2022/04/13 00:03:15;;;;;;;165.25;76.85;;;;;;;-1.06;60.77;101023.66;1701122;83;34649;-73
2022/04/13 00:05:41;;;;;;;163.82;72.47;;;;;;;-1.08;60.92;101021.74;1683201;85;25580;-73
2022/04/13 00:08:08;;;;;;;146.60;67.72;;;;;;;-1.11;61.01;101010.22;1701176;84;27467;-73
2022/04/13 00:10:35;;;;;;;133.97;64.25;;;;;;;-1.13;61.19;101011.75;1671376;85;25624;-73
2022/04/13 00:13:02;;;;;;;156.05;68.97;;;;;;;-1.14;60.98;101012.00;1701126;84;25491;-73
2022/04/13 00:15:28;;;;;;;149.23;69.72;;;;;;;-1.14;61.33;101012.00;1683152;85;26147;-73
2022/04/13 00:17:54;;;;;;;145.38;67.35;;;;;;;-1.14;61.51;101013.32;1701167;84;25429;-73
2022/04/13 00:20:22;;;;;;;153.38;70.05;;;;;;;-1.19;61.23;101017.09;1671445;84;28131;-73
2022/04/13 00:22:49;;;;;;;142.55;68.57;;;;;;;-1.20;61.18;101012.31;1671384;85;25420;-73
2022/04/13 00:25:15;;;;;;;149.32;70.52;;;;;;;-1.23;61.29;101007.42;1683192;85;25531;-73
2022/04/13 00:27:41;;;;;;;156.80;71.25;;;;;;;-1.23;61.46;101012.73;1682424;84;25576;-73
2022/04/13 00:30:10;;;;;;;155.78;69.75;;;;;;;-1.24;61.54;101016.43;1681228;85;25639;-72
2022/04/13 00:32:36;;;;;;;153.20;69.45;;;;;;;-1.23;61.78;101022.02;1699136;84;28264;-72
2022/04/13 00:35:04;;;;;;;147.80;67.20;;;;;;;-1.25;61.76;101021.95;1681624;85;30905;-72
2022/04/13 00:37:32;;;;;;;149.97;67.53;;;;;;;-1.29;61.82;101020.73;1681731;85;25623;-73
2022/04/13 00:39:59;;;;;;;144.80;63.90;;;;;;;-1.33;61.84;101019.02;1681711;85;25455;-73
2022/04/13 00:42:25;;;;;;;136.55;64.42;;;;;;;-1.37;61.91;101025.78;1681778;85;25433;-72
2022/04/13 00:44:51;;;;;;;147.65;65.12;;;;;;;-1.39;61.38;101029.17;1681713;85;27577;-72
2022/04/13 00:47:18;;;;;;;132.70;62.65;;;;;;;-1.41;61.86;101025.92;1681644;85;25448;-72
2022/04/13 00:49:45;;;;;;;136.43;63.50;;;;;;;-1.41;61.92;101024.59;1681725;85;25563;-72
2022/04/13 00:52:14;;;;;;;142.53;63.60;;;;;;;-1.46;62.02;101019.91;1681718;85;25571;-72
2022/04/13 00:54:45;;;;;;;146.57;64.80;;;;;;;-1.48;62.22;101023.30;1681944;85;25418;-72
2022/04/13 00:57:16;;;;;;;140.50;63.35;;;;;;;-1.49;61.78;101028.28;1681788;85;28252;-72
2022/04/13 00:59:45;;;;;;;143.50;59.75;;;;;;;-1.51;62.42;101029.82;1681694;85;25419;-72
2022/04/13 01:02:13;;;;;;;134.47;61.00;;;;;;;-1.52;62.10;101026.05;1681912;85;25413;-72
2022/04/13 01:04:40;;;;;;;137.20;61.42;;;;;;;-1.52;62.53;101025.52;1681737;85;25668;-72
2022/04/13 01:07:09;;;;;;;138.47;59.80;;;;;;;-1.53;62.72;101021.27;1681797;85;25427;-72
2022/04/13 01:09:38;;;;;;;134.60;61.77;;;;;;;-1.54;62.76;101021.47;1681847;85;27476;-73
2022/04/13 01:12:06;;;;;;;133.30;59.58;;;;;;;-1.56;62.89;101019.55;1681215;84;25323;-72
2022/04/13 01:14:32;;;;;;;123.90;58.48;;;;;;;-1.58;62.46;101022.41;1681754;85;26192;-72
2022/04/13 01:17:00;;;;;;;134.57;59.63;;;;;;;-1.58;62.98;101025.06;1681691;85;25648;-72
2022/04/13 01:19:27;;;;;;;131.20;57.70;;;;;;;-1.58;62.77;101022.92;1680626;85;25339;-72
2022/04/13 01:21:58;;;;;;;113.35;55.25;;;;;;;-1.58;62.74;101027.71;1680873;85;27991;-72
2022/04/13 01:24:22;;;;;;;120.53;55.63;;;;;;;-1.57;62.49;101029.33;1681148;85;25615;-71
2022/04/13 01:26:48;;;;;;;119.25;55.23;;;;;;;-1.56;62.96;101026.18;1681687;85;25466;-71
2022/04/13 01:29:14;;;;;;;118.85;56.05;;;;;;;-1.56;63.02;101030.16;1681212;85;25487;-72
2022/04/13 01:31:41;;;;;;;109.75;52.40;;;;;;;-1.59;62.96;101031.38;1681278;85;25410;-72
2022/04/13 01:34:09;;;;;;;120.30;54.55;;;;;;;-1.60;63.11;101026.28;1681243;85;27468;-72
2022/04/13 01:36:36;;;;;;;120.30;52.60;;;;;;;-1.62;62.65;101033.64;1681077;85;25431;-72
2022/04/13 01:39:06;;;;;;;113.37;53.00;;;;;;;-1.62;62.54;101030.47;1681209;85;25623;-72
2022/04/13 01:41:32;;;;;;;118.35;52.85;;;;;;;-1.60;63.21;101032.91;1681293;85;25632;-72
2022/04/13 01:44:00;;;;;;;120.85;56.60;;;;;;;-1.60;63.16;101038.22;1652465;85;25488;-72
2022/04/13 01:46:27;;;;;;;125.27;57.27;;;;;;;-1.58;63.35;101038.84;1681207;85;27465;-72
2022/04/13 01:48:53;;;;;;;127.75;58.10;;;;;;;-1.60;63.62;101039.55;1681129;85;25617;-72
2022/04/13 01:51:20;;;;;;;118.55;56.08;;;;;;;-1.61;63.17;101032.11;1681224;85;25474;-72
2022/04/13 01:53:49;;;;;;;126.42;55.20;;;;;;;-1.61;63.29;101034.76;1681177;85;25577;-72
2022/04/13 01:56:15;;;;;;;128.18;59.60;;;;;;;-1.59;62.96;101037.20;1681219;85;25648;-72
2022/04/13 01:58:41;;;;;;;116.10;54.50;;;;;;;-1.60;63.13;101040.37;1681197;85;27510;-72
2022/04/13 02:01:07;;;;;;;138.07;56.65;;;;;;;-1.60;63.16;101035.07;1701039;84;25561;-72
2022/04/13 02:03:34;;;;;;;127.67;57.80;;;;;;;-1.59;63.41;101045.16;1671391;85;25468;-72
2022/04/13 02:06:00;;;;;;;130.72;55.92;;;;;;;-1.59;63.62;101037.20;1683122;85;25531;-71
2022/04/13 02:08:26;;;;;;;125.02;55.00;;;;;;;-1.62;63.78;101043.73;1696097;84;25501;-71
2022/04/13 02:10:53;;;;;;;116.37;53.80;;;;;;;-1.63;63.71;101041.31;1696091;84;27547;-71
2022/04/13 02:13:22;;;;;;;122.92;57.13;;;;;;;-1.64;63.73;101051.09;1695963;84;25411;-71
2022/04/13 02:15:49;;;;;;;127.20;58.65;;;;;;;-1.66;63.95;101050.48;1649664;85;25571;-71
2022/04/13 02:18:16;;;;;;;120.82;56.53;;;;;;;-1.67;63.97;101062.63;1671365;85;25558;-71
2022/04/13 02:20:41;;;;;;;118.08;55.30;;;;;;;-1.67;63.98;101057.33;1701111;84;25636;-71
2022/04/13 02:23:08;;;;;;;123.00;55.60;;;;;;;-1.70;63.71;101062.03;1683134;85;27492;-71
2022/04/13 02:25:35;;;;;;;123.18;55.78;;;;;;;-1.71;64.06;101061.72;1683067;85;25402;-71
2022/04/13 02:28:05;;;;;;;120.85;56.63;;;;;;;-1.71;64.36;101060.91;1683026;84;25582;-72
2022/04/13 02:30:32;;;;;;;122.75;54.53;;;;;;;-1.72;64.14;101057.94;1695744;83;25635;-72
2022/04/13 02:32:58;;;;;;;116.33;52.93;;;;;;;-1.69;64.12;101068.14;1696064;84;25635;-72
2022/04/13 02:35:25;;;;;;;117.20;54.25;;;;;;;-1.73;64.12;101058.98;1672812;85;27447;-72
2022/04/13 02:37:51;;;;;;;124.40;55.20;;;;;;;-1.75;64.15;101053.08;1683026;85;25447;-72
2022/04/13 02:40:19;;;;;;;115.82;55.00;;;;;;;-1.76;63.94;101059.40;1701068;84;25407;-72
2022/04/13 02:42:46;;;;;;;126.00;54.93;;;;;;;-1.76;63.85;101068.68;1683074;85;25647;-72
2022/04/13 02:45:12;;;;;;;119.02;54.53;;;;;;;-1.77;64.02;101066.55;1683126;85;25660;-73
2022/04/13 02:47:38;;;;;;;120.53;54.33;;;;;;;-1.77;64.06;101073.67;1696040;83;27565;-72
2022/04/13 02:50:06;;;;;;;115.20;53.35;;;;;;;-1.78;64.24;101082.15;1695927;84;25796;-72
2022/04/13 02:52:33;;;;;;;111.83;49.53;;;;;;;-1.81;64.19;101077.77;1671360;85;25440;-72
2022/04/13 02:55:00;;;;;;;112.47;51.98;;;;;;;-1.86;64.31;101077.05;1671289;85;26118;-72
2022/04/13 02:57:26;;;;;;;111.37;51.92;;;;;;;-1.91;64.49;101076.86;1683133;85;25479;-72
2022/04/13 02:59:52;;;;;;;122.45;52.65;;;;;;;-1.95;64.40;101080.44;1701067;84;27539;-72
2022/04/13 03:02:20;;;;;;;119.25;53.70;;;;;;;-1.96;64.02;101070.87;1683027;85;25398;-72
2022/04/13 03:04:47;;;;;;;104.75;50.40;;;;;;;-1.95;64.12;101069.03;1683106;85;25429;-73
2022/04/13 03:07:17;;;;;;;101.80;48.10;;;;;;;-1.95;64.63;101073.81;1672039;84;25628;-72
2022/04/13 03:09:43;;;;;;;;;;;;;;;-1.97;64.73;101065.78;1698573;84;25578;-72
2022/04/13 03:12:10;;;;;;;107.75;48.73;;;;;;;-1.97;64.76;101067.10;1701074;84;27529;-72
2022/04/13 03:14:39;;;;;;;111.30;50.80;;;;;;;-1.99;64.42;101064.66;1682350;84;25253;-72
2022/04/13 03:17:06;;;;;;;117.87;51.20;;;;;;;-2.00;64.68;101068.84;1696139;83;25425;-72
2022/04/13 03:19:34;;;;;;;114.10;52.03;;;;;;;-2.02;65.05;101067.71;1696005;84;25560;-72
2022/04/13 03:22:00;;;;;;;112.22;52.20;;;;;;;-2.04;65.08;101068.92;1672823;85;25575;-72
2022/04/13 03:24:26;;;;;;;111.92;51.85;;;;;;;-2.08;65.16;101075.16;1683089;85;28189;-72
2022/04/13 03:26:53;;;;;;;116.80;52.73;;;;;;;-2.12;65.33;101065.47;1700951;83;25408;-72
2022/04/13 03:29:19;;;;;;;113.32;53.30;;;;;;;-2.15;65.22;101074.35;1683014;84;25500;-72
2022/04/13 03:31:46;;;;;;;117.10;54.42;;;;;;;-2.16;65.04;101063.43;1683076;85;25562;-72
2022/04/13 03:34:13;;;;;;;118.65;54.23;;;;;;;-2.16;65.23;101058.97;1701021;84;25472;-72
2022/04/13 03:36:42;;;;;;;110.08;51.00;;;;;;;-2.15;65.35;101054.47;1683096;85;27524;-72
2022/04/13 03:39:09;;;;;;;108.52;50.50;;;;;;;-2.16;65.51;101054.16;1696069;84;25416;-72
2022/04/13 03:41:37;;;;;;;95.95;44.60;;;;;;;-2.19;65.79;101054.07;1696148;84;25605;-72
2022/04/13 03:44:06;;;;;;;86.92;42.08;;;;;;;-2.20;65.93;101063.03;1695665;83;26004;-72
2022/04/13 03:46:32;;;;;;;87.30;43.20;;;;;;;-2.19;66.31;101065.19;1671732;84;25561;-72
2022/04/13 03:48:59;;;;;;;98.33;44.73;;;;;;;-2.19;66.46;101056.72;1671668;85;27406;-72
2022/04/13 03:51:26;;;;;;;104.05;46.55;;;;;;;-2.16;66.31;101058.13;1684169;85;25447;-72
2022/04/13 03:53:52;;;;;;;96.42;42.48;;;;;;;-2.16;66.05;101059.45;1696395;83;25429;-72
2022/04/13 03:56:19;;;;;;;84.77;40.78;;;;;;;-2.14;66.70;101065.39;1696157;84;25539;-72
2022/04/13 03:58:45;;;;;;;85.30;39.55;;;;;;;-2.12;66.99;101063.34;1672951;85;25421;-72
2022/04/13 04:01:11;;;;;;;89.28;41.63;;;;;;;-2.10;67.22;101059.97;1671432;85;28263;-72
2022/04/13 04:03:37;;;;;;;88.67;39.95;;;;;;;-2.07;66.93;101075.47;1683120;85;25474;-72
2022/04/13 04:06:05;;;;;;;94.03;43.83;;;;;;;-2.03;66.73;101080.66;1696135;84;25551;-72
2022/04/13 04:08:35;;;;;;;93.78;41.55;;;;;;;-2.00;66.71;101095.34;1696092;84;25645;-72
2022/04/13 04:11:01;;;;;;;89.95;42.73;;;;;;;-1.99;66.94;101088.52;1696195;84;25582;-71
2022/04/13 04:13:27;;;;;;;99.35;44.00;;;;;;;-1.96;66.66;101088.60;1671451;85;27462;-72
2022/04/13 04:15:54;;;;;;;92.35;43.60;;;;;;;-1.92;66.71;101092.48;1671401;85;25500;-72
2022/04/13 04:18:20;;;;;;;107.72;46.70;;;;;;;-1.89;67.10;101096.03;1683316;85;25458;-72
2022/04/13 04:20:47;;;;;;;102.62;47.65;;;;;;;-1.88;67.20;101095.83;1696183;83;25584;-72
2022/04/13 04:23:13;;;;;;;76.87;38.40;;;;;;;-1.86;67.23;101098.80;1696681;84;25708;-72
2022/04/13 04:25:40;;;;;;;99.25;44.93;;;;;;;-1.82;67.41;101108.80;1673054;85;27470;-72
2022/04/13 04:28:10;;;;;;;94.95;44.10;;;;;;;-1.77;67.51;101108.16;1683202;85;25653;-72
2022/04/13 04:30:34;;;;;;;102.05;47.15;;;;;;;-1.73;67.30;101107.54;1700925;84;25389;-73
2022/04/13 04:33:00;;;;;;;106.30;50.17;;;;;;;-1.67;67.22;101109.06;1671610;85;26175;-72
2022/04/13 04:35:27;;;;;;;107.83;48.73;;;;;;;-1.63;67.21;101113.75;1701305;84;25444;-70
2022/04/13 04:37:54;;;;;;;111.60;51.00;;;;;;;-1.59;67.38;101115.47;1671615;85;27493;-72
2022/04/13 04:40:22;;;;;;;106.32;49.38;;;;;;;-1.54;67.39;101122.30;1683316;85;25923;-72
2022/04/13 04:42:51;;;;;;;104.83;49.35;;;;;;;-1.50;67.59;101122.17;1701396;84;25565;-72
2022/04/13 04:45:19;;;;;;;106.43;49.35;;;;;;;-1.41;67.74;101124.12;1672166;85;25634;-71
2022/04/13 04:47:50;;;;;;;100.47;47.17;;;;;;;-1.34;67.84;101132.34;1671828;84;25566;-71
2022/04/13 04:50:18;;;;;;;;;;;;;;;-1.25;67.99;101134.25;1674477;85;27525;-71
2022/04/13 04:52:47;;;;;;;100.53;46.30;;;;;;;-1.16;68.04;101132.17;1691188;84;25641;-71
2022/04/13 04:55:19;;;;;;;101.70;45.48;;;;;;;-1.08;67.87;101135.92;1691235;84;25555;-71
2022/04/13 04:57:47;;;;;;;102.92;47.25;;;;;;;-1.01;67.97;101128.73;1690911;84;25547;-71
2022/04/13 05:00:18;;;;;;;122.33;59.25;;;;;;;-0.92;68.02;101129.30;1690986;84;25631;-72
2022/04/13 05:02:48;;;;;;;197.57;94.13;;;;;;;-0.85;68.03;101128.78;1690841;84;27509;-71
2022/04/13 05:05:14;;;;;;;;;;;;;;;-0.77;68.09;101127.21;1693279;84;25990;-71
2022/04/13 05:07:41;;;;;;;102.97;47.95;;;;;;;-0.67;68.07;101137.88;1701310;84;25455;-71
2022/04/13 05:10:09;;;;;;;84.32;41.25;;;;;;;-0.61;68.06;101126.41;1671465;84;26243;-71
2022/04/13 05:12:47;;;;;;;81.50;40.67;;;;;;;-0.51;68.30;101124.09;1672938;85;25477;-71
2022/04/13 05:15:13;;;;;;;95.53;43.38;;;;;;;-0.41;68.41;101127.58;1683198;85;27506;-71
2022/04/13 05:17:41;;;;;;;92.12;41.75;;;;;;;-0.29;68.43;101125.88;1683552;85;25225;-70
2022/04/13 05:20:09;;;;;;;83.90;41.25;;;;;;;-0.17;68.63;101123.33;1683564;85;25490;-72
2022/04/13 05:22:38;;;;;;;89.50;43.98;;;;;;;-0.02;68.69;101129.14;1701612;83;25653;-72
2022/04/13 05:25:15;;;;;;;88.20;43.17;;;;;;;0.13;68.81;101135.43;1683718;85;25627;-71
2022/04/13 05:27:43;;;;;;;88.78;44.67;;;;;;;0.31;68.72;101135.99;1683404;85;27479;-72
2022/04/13 05:30:14;;;;;;;81.72;41.08;;;;;;;0.47;68.63;101131.13;1683241;83;25472;-71
2022/04/13 05:33:12;;;;;;;82.45;41.85;;;;;;;0.61;68.43;101126.47;1691872;83;25709;-72
2022/04/13 05:35:38;;;;;;;82.33;42.23;;;;;;;0.74;68.50;101128.98;1662053;85;25771;-71
2022/04/13 05:38:05;;;;;;;67.50;35.33;;;;;;;0.93;68.46;101131.11;1682526;83;25736;-72
2022/04/13 05:40:31;;;;;;;64.50;34.63;;;;;;;1.11;68.27;101133.75;1700648;84;27475;-72
2022/04/13 05:42:57;;;;;;;73.28;36.58;;;;;;;1.34;68.39;101140.73;1699977;84;25584;-71
2022/04/13 05:45:24;;;;;;;70.57;35.68;;;;;;;1.60;68.56;101140.86;1699992;84;25533;-71
2022/04/13 05:47:51;;;;;;;73.20;37.83;;;;;;;1.86;68.85;101136.45;1699877;84;25658;-71
2022/04/13 05:50:17;;;;;;;78.40;42.65;;;;;;;2.19;69.08;101141.75;1699993;84;25459;-73
2022/04/13 05:52:46;;;;;;;74.00;39.78;;;;;;;2.50;68.74;101141.09;1700535;84;27515;-72
2022/04/13 05:55:13;;;;;;;74.53;38.93;;;;;;;2.81;68.81;101140.42;1699965;84;25598;-71
2022/04/13 05:57:39;;;;;;;72.05;39.40;;;;;;;3.16;68.26;101142.97;1699926;84;25618;-72
2022/04/13 06:00:10;;;;;;;78.25;40.23;;;;;;;3.51;68.03;101140.67;1699073;83;25564;-73
2022/04/13 06:02:39;;;;;;;72.15;38.40;;;;;;;3.87;67.76;101140.47;1680248;85;25694;-71
2022/04/13 06:05:06;;;;;;;73.10;38.53;;;;;;;4.27;67.56;101137.61;1698599;83;27454;-70
2022/04/13 06:07:33;;;;;;;81.92;40.45;;;;;;;4.70;67.09;101142.44;1697914;84;25686;-72
2022/04/13 06:10:02;;;;;;;77.12;41.30;;;;;;;5.11;66.58;101146.95;1710471;83;25431;-72
2022/04/13 06:12:29;;;;;;;69.85;40.05;;;;;;;5.53;66.10;101146.31;1710903;83;25610;-72
2022/04/13 06:15:05;;;;;;;67.03;37.48;;;;;;;5.95;65.59;101157.15;1710532;83;25659;-72
2022/04/13 06:17:31;;;;;;;69.62;38.30;;;;;;;6.36;63.97;101157.47;1710526;83;28202;-72
2022/04/13 06:19:58;;;;;;;66.35;39.45;;;;;;;6.80;63.00;101164.98;1710443;83;25697;-72
2022/04/13 06:22:30;;;;;;;65.42;36.85;;;;;;;7.22;62.32;101160.83;1711053;83;25558;-73
2022/04/13 06:24:56;;;;;;;69.10;38.85;;;;;;;7.63;61.58;101163.59;1710851;83;25614;-73
2022/04/13 06:27:24;;;;;;;79.65;38.92;;;;;;;8.06;60.45;101161.19;1710525;83;25662;-72
2022/04/13 06:29:52;;;;;;;68.67;37.28;;;;;;;8.51;59.73;101168.95;1709989;83;27476;-73
2022/04/13 06:32:19;;;;;;;70.05;38.30;;;;;;;8.94;58.79;101169.37;1709111;84;25689;-73
2022/04/13 06:34:45;;;;;;;62.43;35.80;;;;;;;9.32;57.73;101169.72;1709399;84;25531;-73
2022/04/13 06:37:11;;;;;;;58.42;35.70;;;;;;;9.71;56.08;101172.42;1709170;84;25552;-73
2022/04/13 06:39:39;;;;;;;64.35;35.05;;;;;;;10.05;54.84;101172.97;1709220;84;25589;-73
2022/04/13 06:42:06;;;;;;;54.08;32.03;;;;;;;10.48;54.62;101171.53;1709303;83;27413;-72
2022/04/13 06:44:32;;;;;;;54.48;31.20;;;;;;;10.95;54.17;101180.19;1709148;83;25833;-70
2022/04/13 06:46:59;;;;;;;59.67;32.17;;;;;;;11.36;52.38;101181.56;1709242;84;25566;-72
2022/04/13 06:49:26;;;;;;;53.80;31.02;;;;;;;11.68;51.94;101176.75;1709215;84;25485;-72
2022/04/13 06:51:52;;;;;;;47.83;27.75;;;;;;;12.12;51.00;101189.63;1709419;83;25629;-72
2022/04/13 06:54:18;;;;;;;47.75;25.17;;;;;;;12.57;50.11;101184.48;1709657;84;27509;-73
2022/04/13 06:56:44;;;;;;;49.48;28.25;;;;;;;12.91;48.27;101186.00;1709089;84;25661;-71
2022/04/13 06:59:10;;;;;;;50.15;27.95;;;;;;;13.16;47.42;101189.28;1708980;84;25489;-70
2022/04/13 07:01:36;;;;;;;46.35;26.85;;;;;;;13.39;46.46;101190.18;1708958;84;25545;-71
2022/04/13 07:04:02;;;;;;;36.40;23.00;;;;;;;13.72;46.17;101186.68;1709178;84;25461;-71
2022/04/13 07:06:29;;;;;;;33.98;21.60;;;;;;;14.08;43.62;101192.64;1709100;84;27413;-72
2022/04/13 07:08:55;;;;;;;30.15;20.05;;;;;;;14.18;43.42;101197.82;1708864;84;25457;-71
2022/04/13 07:11:22;;;;;;;37.25;21.00;;;;;;;14.41;43.00;101196.41;1690559;84;25502;-71
2022/04/13 07:13:48;;;;;;;31.05;19.73;;;;;;;14.70;42.78;101191.05;1709293;83;26164;-70
2022/04/13 07:16:14;;;;;;;25.70;16.00;;;;;;;14.96;41.83;101191.69;1709238;84;25805;-72
2022/04/13 07:18:42;;;;;;;18.98;11.68;;;;;;;15.35;40.21;101189.99;1709244;84;27688;-70
2022/04/13 07:21:08;;;;;;;19.82;13.88;;;;;;;15.45;40.27;101192.41;1709172;84;25729;-71
2022/04/13 07:23:34;;;;;;;19.77;12.65;;;;;;;15.66;40.34;101192.56;1694410;83;26399;-72
2022/04/13 07:26:00;;;;;;;18.67;12.47;;;;;;;15.85;39.47;101201.25;1714231;83;25794;-72
2022/04/13 07:28:27;;;;;;;23.95;13.08;;;;;;;16.17;39.34;101196.37;1714387;83;25793;-71
2022/04/13 07:30:53;;;;;;;17.15;12.45;;;;;;;16.47;37.62;101203.28;1712996;82;27577;-72
2022/04/13 07:33:19;;;;;;;16.00;10.18;;;;;;;16.56;37.16;101205.41;1710989;83;25879;-71
2022/04/13 07:35:45;;;;;;;18.62;10.13;;;;;;;16.54;36.39;101207.67;1710826;83;25393;-72
2022/04/13 07:38:11;;;;;;;19.50;10.08;;;;;;;16.77;36.97;101204.13;1710680;83;25549;-72
2022/04/13 07:40:38;;;;;;;18.92;10.28;;;;;;;16.99;33.31;101204.99;1685107;83;25606;-71
2022/04/13 07:43:04;;;;;;;14.70;8.73;;;;;;;16.86;34.59;101216.41;1710361;83;27632;-72
2022/04/13 07:45:31;;;;;;;12.82;7.28;;;;;;;16.62;34.38;101215.60;1685795;83;25640;-72
2022/04/13 07:47:57;;;;;;;16.30;7.70;;;;;;;16.61;33.53;101213.42;1710352;83;25401;-72
2022/04/13 07:50:24;;;;;;;11.88;6.55;;;;;;;16.54;33.64;101215.86;1710136;83;25643;-71
2022/04/13 07:52:52;;;;;;;10.32;5.70;;;;;;;16.51;33.40;101208.89;1708949;83;25671;-72
2022/04/13 07:55:19;;;;;;;12.25;6.40;;;;;;;16.62;33.76;101206.05;1709854;83;27472;-71
2022/04/13 07:57:45;;;;;;;10.20;6.55;;;;;;;16.87;32.49;101208.42;1710142;83;25707;-71
2022/04/13 08:00:13;;;;;;;12.20;7.00;;;;;;;16.96;33.40;101199.64;1710189;83;25831;-73
2022/04/13 08:02:42;;;;;;;11.78;7.00;;;;;;;17.31;33.67;101215.81;1710235;83;25512;-72
2022/04/13 08:05:09;;;;;;;10.80;6.95;;;;;;;17.72;30.63;101219.70;1710392;83;25432;-72
2022/04/13 08:07:36;;;;;;;10.50;6.97;;;;;;;17.70;31.38;101220.58;1710983;83;28144;-71
2022/04/13 08:10:03;;;;;;;13.28;7.17;;;;;;;17.79;32.19;101212.87;1709514;83;25757;-71
2022/04/13 08:12:31;;;;;;;11.48;7.03;;;;;;;17.88;31.18;101212.28;1708752;83;25724;-72
2022/04/13 08:14:58;;;;;;;10.10;7.00;;;;;;;17.81;30.78;101209.23;1709906;83;25716;-71
2022/04/13 08:17:26;;;;;;;8.90;6.08;;;;;;;17.93;31.17;101206.59;1710006;83;25432;-72
2022/04/13 08:19:53;;;;;;;11.30;6.40;;;;;;;18.11;30.79;101196.25;1709968;83;28265;-73
2022/04/13 08:22:27;;;;;;;12.68;8.35;;;;;;;18.23;30.54;101198.22;1710261;83;25702;-72
2022/04/13 08:24:54;;;;;;;13.53;7.50;;;;;;;18.41;30.34;101190.05;1714391;82;25564;-72
2022/04/13 08:27:21;;;;;;;10.15;6.08;;;;;;;18.79;31.04;101193.03;1681445;85;25738;-72
2022/04/13 08:29:47;;;;;;;9.38;5.85;;;;;;;19.19;29.94;101190.97;1681500;85;25755;-72
2022/04/13 08:32:18;;;;;;;13.22;6.70;;;;;;;19.23;29.35;101185.59;1681879;84;27481;-73
2022/04/13 08:34:46;;;;;;;8.30;6.20;;;;;;;19.25;29.16;101190.16;1681197;85;25501;-73
2022/04/13 08:37:13;;;;;;;9.60;5.97;;;;;;;18.98;27.88;101197.95;1681616;85;25619;-72
2022/04/13 08:39:39;;;;;;;8.48;5.70;;;;;;;18.76;27.73;101188.25;1681527;85;25545;-73
2022/04/13 08:42:18;;;;;;;7.70;5.47;;;;;;;18.52;27.17;101178.64;1681591;85;25402;-72
2022/04/13 08:44:49;;;;;;;7.90;5.53;;;;;;;18.10;27.49;101180.98;1664281;85;27443;-73
2022/04/13 08:47:22;;;;;;;10.18;5.35;;;;;;;18.04;27.49;101179.59;1681589;85;25954;-73
2022/04/13 08:49:51;;;;;;;6.80;4.95;;;;;;;17.98;27.89;101180.38;1681280;84;25683;-73
2022/04/13 08:52:24;;;;;;;9.38;5.30;;;;;;;18.36;28.75;101176.58;1682251;85;34630;-71
2022/04/13 08:55:14;;;;;;;7.35;4.90;;;;;;;18.81;28.09;101169.39;1681972;83;25694;-72
2022/04/13 09:00:35;;;;;;;8.98;4.50;;;;;;;19.42;27.87;101182.23;1593352;89;25509;-73
2022/04/13 09:03:27;;;;;;;11.30;5.08;;;;;;;19.68;27.92;101176.88;1593418;90;25886;-71
2022/04/13 09:05:58;;;;;;;7.65;4.55;;;;;;;20.18;27.59;101180.22;1593327;90;26308;-71
2022/04/13 09:08:35;;;;;;;6.72;5.10;;;;;;;20.05;26.19;101184.38;1593444;90;25677;-71
2022/04/13 09:11:04;;;;;;;6.87;5.33;;;;;;;19.97;26.42;101177.10;1593404;90;27472;-71
2022/04/13 09:13:32;;;;;;;;;;;;;;;20.18;26.20;101178.84;1595668;90;25692;-73
2022/04/13 09:16:00;;;;;;;9.60;5.62;;;;;;;20.49;26.84;101179.42;1593395;90;25855;-72
2022/04/13 09:18:26;;;;;;;10.30;5.97;;;;;;;20.93;26.68;101179.89;1593412;90;25459;-71
2022/04/13 09:20:53;;;;;;;12.35;5.58;;;;;;;21.14;25.88;101178.98;1593389;90;25674;-72
2022/04/13 09:23:23;;;;;;;7.33;5.12;;;;;;;21.29;25.05;101179.30;1593872;90;27566;-71
2022/04/13 09:25:51;;;;;;;8.40;5.97;;;;;;;21.39;25.14;101184.23;1593287;90;25699;-71
2022/04/13 09:28:18;;;;;;;7.87;5.00;;;;;;;21.57;25.23;101170.85;1593551;90;25537;-71
2022/04/13 09:30:44;;;;;;;8.18;5.33;;;;;;;21.82;24.92;101170.76;1593437;90;25726;-71
2022/04/13 09:33:10;;;;;;;8.48;5.67;;;;;;;22.05;24.22;101166.44;1593609;90;25465;-71
2022/04/13 09:35:36;;;;;;;7.75;4.90;;;;;;;22.24;24.07;101154.00;1593377;90;27456;-70
2022/04/13 09:38:06;;;;;;;8.63;5.25;;;;;;;22.60;24.53;101151.06;1665400;84;25790;-71
2022/04/13 09:40:41;;;;;;;7.78;4.80;;;;;;;22.64;22.96;101149.14;1699459;83;25713;-71
2022/04/13 09:43:17;;;;;;;11.25;5.17;;;;;;;22.34;22.23;101156.76;1698602;84;26016;-71
2022/04/13 09:45:50;;;;;;;8.45;4.50;;;;;;;21.68;22.89;101146.30;1699227;83;25421;-71
2022/04/13 09:48:20;;;;;;;6.53;4.75;;;;;;;21.35;22.26;101155.83;1699335;84;27498;-71
2022/04/13 09:50:48;;;;;;;;;;;;;;;20.85;22.41;101154.97;1701571;84;25410;-71
2022/04/13 09:53:17;;;;;;;8.65;4.72;;;;;;;20.66;22.85;101143.34;1699300;84;25611;-71
2022/04/13 09:55:59;;;;;;;6.70;4.92;;;;;;;20.89;23.96;101135.80;1699257;84;26107;-71
2022/04/13 09:58:30;;;;;;;8.30;4.97;;;;;;;21.45;23.60;101145.63;1699846;84;25630;-71
2022/04/13 10:01:00;;;;;;;8.70;4.90;;;;;;;21.68;22.71;101139.42;1696349;84;27496;-71
2022/04/13 10:03:26;;;;;;;6.00;4.62;;;;;;;21.90;23.51;101125.47;1696560;84;25809;-69
2022/04/13 10:05:57;;;;;;;6.75;4.40;;;;;;;22.42;23.40;101130.88;1696308;84;25474;-69
2022/04/13 10:08:27;;;;;;;6.10;4.33;;;;;;;22.49;22.43;101130.20;1696347;84;25631;-69
2022/04/13 10:10:57;;;;;;;9.60;4.80;;;;;;;22.64;22.17;101137.52;1696482;84;25657;-69
2022/04/13 10:13:35;;;;;;;7.03;4.40;;;;;;;22.71;22.17;101136.27;1696365;84;28179;-69
2022/04/13 10:16:08;;;;;;;7.17;4.50;;;;;;;22.78;22.04;101125.90;1696509;84;25715;-69
2022/04/13 10:18:58;;;;;;;5.83;4.58;;;;;;;23.25;22.54;101114.14;1696032;84;25622;-68
2022/04/13 10:21:48;;;;;;;5.47;4.70;;;;;;;23.79;22.04;101121.05;1696375;84;25513;-69
2022/04/13 10:24:29;;;;;;;6.92;4.58;;;;;;;23.98;21.49;101111.78;1671408;84;25588;-67
2022/04/13 10:27:18;;;;;;;5.67;3.90;;;;;;;24.19;21.78;101111.75;1696552;84;27153;-67
2022/04/13 10:29:47;;;;;;;7.17;4.65;;;;;;;24.53;21.58;101097.78;1696462;84;25603;-67
2022/04/13 10:32:25;;;;;;;7.47;4.70;;;;;;;24.74;21.20;101081.92;1696571;84;25603;-67
2022/04/13 10:34:59;;;;;;;9.43;6.08;;;;;;;25.03;21.11;101088.41;1696617;84;25613;-68
2022/04/13 10:37:26;;;;;;;5.95;4.22;;;;;;;25.08;20.26;101112.13;1695143;84;25741;-67
2022/04/13 10:39:52;;;;;;;7.12;4.87;;;;;;;24.70;20.19;101097.72;1696319;84;27428;-68
2022/04/13 10:42:21;;;;;;;6.40;4.78;;;;;;;24.56;19.86;101104.74;1696461;84;25706;-68
2022/04/13 10:45:08;;;;;;;8.70;4.78;;;;;;;24.29;20.10;101101.36;1696792;84;25591;-69
2022/04/13 10:48:04;;;;;;;9.68;5.12;;;;;;;24.56;20.59;101090.13;1696475;84;25635;-68
2022/04/13 10:50:53;;;;;;;7.67;5.12;;;;;;;24.75;20.41;101078.77;1696693;84;25850;-68
2022/04/13 10:53:30;;;;;;;7.67;4.65;;;;;;;25.07;20.35;101088.42;1696892;84;27475;-70
2022/04/13 10:56:06;;;;;;;6.22;4.40;;;;;;;25.44;20.44;101086.00;1696594;84;25571;-71
2022/04/13 10:59:05;;;;;;;6.30;4.65;;;;;;;25.83;20.31;101079.70;1694039;84;25593;-74
2022/04/13 11:01:54;;;;;;;8.33;4.58;;;;;;;25.49;19.15;101079.48;1695908;84;25800;-73
2022/04/13 11:04:24;;;;;;;7.55;4.28;;;;;;;25.56;19.48;101080.66;1696440;84;25767;-74
2022/04/13 11:06:51;;;;;;;7.22;4.50;;;;;;;25.73;19.15;101066.84;1696392;84;27486;-73
2022/04/13 11:09:31;;;;;;;6.55;4.17;;;;;;;25.78;19.00;101073.98;1696785;84;25422;-73
2022/04/13 11:12:01;;;;;;;10.38;4.40;;;;;;;25.78;18.94;101071.78;1696982;84;25663;-73
2022/04/13 11:14:28;;;;;;;7.08;4.90;;;;;;;25.54;18.27;101072.16;1696958;84;25538;-73
2022/04/13 11:17:13;;;;;;;7.33;4.50;;;;;;;24.73;17.77;101070.67;1697095;84;25753;-73
2022/04/13 11:19:43;;;;;;;7.55;5.17;;;;;;;24.02;18.87;101084.17;1696760;84;27530;-73
2022/04/13 11:22:13;;;;;;;6.00;4.22;;;;;;;23.92;19.17;101080.73;1697074;84;25405;-73